createdAt,value
2023-01-17T00:00:42.374Z,0.20
2023-01-17T00:03:08.510Z,0.22
2023-01-17T00:05:34.660Z,0.30
2023-01-17T00:08:00.764Z,0.30
2023-01-17T00:10:27.110Z,0.20
2023-01-17T00:12:53.215Z,0.30
2023-01-17T00:15:19.336Z,0.35
2023-01-17T00:17:45.441Z,0.30
2023-01-17T00:20:11.553Z,0.22
2023-01-17T00:22:37.677Z,0.28
2023-01-17T00:25:03.830Z,0.30
2023-01-17T00:27:29.970Z,0.20
2023-01-17T00:29:56.086Z,0.30
2023-01-17T00:32:22.254Z,0.30
2023-01-17T00:34:48.363Z,0.40
2023-01-17T00:37:14.481Z,0.28
2023-01-17T00:39:40.578Z,0.25
2023-01-17T00:42:06.719Z,0.40
2023-01-17T00:44:32.891Z,0.43
2023-01-17T00:46:59.011Z,0.20
2023-01-17T00:49:25.112Z,0.50
2023-01-17T00:51:51.239Z,0.40
2023-01-17T00:54:18.975Z,0.35
2023-01-17T00:56:45.249Z,0.13
2023-01-17T00:59:11.340Z,0.20
2023-01-17T01:01:37.622Z,0.20
2023-01-17T01:04:03.857Z,0.22
2023-01-17T01:06:29.972Z,0.30
2023-01-17T01:08:56.112Z,0.20
2023-01-17T01:11:22.224Z,0.30
2023-01-17T01:13:48.349Z,0.10
2023-01-17T01:16:14.503Z,0.20
2023-01-17T01:18:40.641Z,0.20
2023-01-17T01:21:06.756Z,0.20
2023-01-17T01:23:32.890Z,0.20
2023-01-17T01:25:59.033Z,0.57
2023-01-17T01:28:25.199Z,0.30
2023-01-17T01:30:51.318Z,0.20
2023-01-17T01:33:17.535Z,0.20
2023-01-17T01:35:43.681Z,0.20
2023-01-17T01:38:09.798Z,0.40
2023-01-17T01:40:35.906Z,0.20
2023-01-17T01:43:02.035Z,0.20
2023-01-17T01:45:28.152Z,0.13
2023-01-17T01:47:54.292Z,0.30
2023-01-17T01:50:20.384Z,0.20
2023-01-17T01:52:46.511Z,0.20
2023-01-17T01:55:12.615Z,0.20
2023-01-17T01:57:38.715Z,0.20
2023-01-17T02:00:04.839Z,0.30
2023-01-17T02:02:30.965Z,0.43
2023-01-17T02:04:57.092Z,0.20
2023-01-17T02:07:23.215Z,0.20
2023-01-17T02:09:49.332Z,0.35
2023-01-17T02:12:15.443Z,0.20
2023-01-17T02:14:41.558Z,0.30
2023-01-17T02:17:07.660Z,0.22
2023-01-17T02:19:33.786Z,0.20
2023-01-17T02:21:59.930Z,0.30
2023-01-17T02:24:26.058Z,0.63
2023-01-17T02:26:52.172Z,0.20
2023-01-17T02:29:18.318Z,0.10
2023-01-17T02:31:44.492Z,0.30
2023-01-17T02:34:10.671Z,0.30
2023-01-17T02:36:36.790Z,0.32
2023-01-17T02:39:03.041Z,0.32
2023-01-17T02:41:29.177Z,0.20
2023-01-17T02:43:55.276Z,0.22
2023-01-17T02:46:21.396Z,0.45
2023-01-17T02:48:47.565Z,0.20
2023-01-17T02:51:13.701Z,0.30
2023-01-17T02:53:39.797Z,0.28
2023-01-17T02:56:06.060Z,0.20
2023-01-17T02:58:32.165Z,0.30
2023-01-17T03:00:58.386Z,0.32
2023-01-17T03:03:24.561Z,0.35
2023-01-17T03:05:50.693Z,0.30
2023-01-17T03:08:16.810Z,0.47
2023-01-17T03:10:42.948Z,0.20
2023-01-17T03:13:09.057Z,0.20
2023-01-17T03:15:35.175Z,0.20
2023-01-17T03:18:01.300Z,0.30
2023-01-17T03:20:27.550Z,0.30
2023-01-17T03:22:53.675Z,0.20
2023-01-17T03:25:19.806Z,0.20
2023-01-17T03:27:45.947Z,0.32
2023-01-17T03:30:12.065Z,0.20
2023-01-17T03:32:38.220Z,0.20
2023-01-17T03:35:04.331Z,0.50
2023-01-17T03:37:30.448Z,0.47
2023-01-17T03:39:56.560Z,0.20
2023-01-17T03:42:22.685Z,0.30
2023-01-17T03:44:48.798Z,0.30
2023-01-17T03:47:14.937Z,0.30
2023-01-17T03:49:41.055Z,0.20
2023-01-17T03:52:07.208Z,0.20
2023-01-17T03:54:33.328Z,0.20
2023-01-17T03:56:59.497Z,0.28
2023-01-17T03:59:25.606Z,0.30
2023-01-17T04:01:51.797Z,0.10
2023-01-17T04:04:17.964Z,0.35
2023-01-17T04:06:44.085Z,0.20
2023-01-17T04:09:10.230Z,0.20
2023-01-17T04:11:36.336Z,0.20
2023-01-17T04:14:02.445Z,0.20
2023-01-17T04:16:28.584Z,0.20
2023-01-17T04:18:54.723Z,0.20
2023-01-17T04:21:20.860Z,0.35
2023-01-17T04:23:46.986Z,0.30
2023-01-17T04:26:13.088Z,0.20
2023-01-17T04:28:39.226Z,0.28
2023-01-17T04:31:05.429Z,0.20
2023-01-17T04:33:31.569Z,0.10
2023-01-17T04:35:57.691Z,0.40
2023-01-17T04:38:23.821Z,0.38
2023-01-17T04:40:49.968Z,0.47
2023-01-17T04:43:16.094Z,0.20
2023-01-17T04:45:42.240Z,0.20
2023-01-17T04:48:08.385Z,0.20
2023-01-17T04:50:34.509Z,0.30
2023-01-17T04:53:00.647Z,0.38
2023-01-17T04:55:26.769Z,0.30
2023-01-17T04:57:52.899Z,0.40
2023-01-17T05:00:19.019Z,0.20
2023-01-17T05:02:45.169Z,0.80
2023-01-17T05:05:11.338Z,0.38
2023-01-17T05:07:37.454Z,0.52
2023-01-17T05:10:03.572Z,0.20
2023-01-17T05:12:29.709Z,0.50
2023-01-17T05:14:55.862Z,0.25
2023-01-17T05:17:21.979Z,0.20
2023-01-17T05:19:48.142Z,0.40
2023-01-17T05:22:14.240Z,0.38
2023-01-17T05:24:40.370Z,0.50
2023-01-17T05:27:06.504Z,0.30
2023-01-17T05:29:32.627Z,0.28
2023-01-17T05:31:58.737Z,0.30
2023-01-17T05:34:24.847Z,0.20
2023-01-17T05:36:50.989Z,0.20
2023-01-17T05:39:17.096Z,0.35
2023-01-17T05:41:43.223Z,0.20
2023-01-17T05:44:09.402Z,0.45
2023-01-17T05:46:35.563Z,0.30
2023-01-17T05:49:01.721Z,0.30
2023-01-17T05:51:27.840Z,0.30
2023-01-17T05:53:53.953Z,0.25
2023-01-17T05:56:20.081Z,0.20
2023-01-17T05:58:46.196Z,0.47
2023-01-17T06:01:12.384Z,0.65
2023-01-17T06:03:38.502Z,0.20
2023-01-17T06:06:04.654Z,0.28
2023-01-17T06:08:30.770Z,0.60
2023-01-17T06:10:56.917Z,0.47
2023-01-17T06:13:23.040Z,0.30
2023-01-17T06:15:49.178Z,0.20
2023-01-17T06:18:15.306Z,0.30
2023-01-17T06:20:41.490Z,0.35
2023-01-17T06:23:07.658Z,0.40
2023-01-17T06:25:33.851Z,0.45
2023-01-17T06:27:59.994Z,0.57
2023-01-17T06:30:26.131Z,0.50
2023-01-17T06:32:52.257Z,0.50
2023-01-17T06:35:18.379Z,0.40
2023-01-17T06:37:44.513Z,0.73
2023-01-17T06:40:10.629Z,0.57
2023-01-17T06:42:36.747Z,0.40
2023-01-17T06:45:02.875Z,0.77
2023-01-17T06:47:29.003Z,0.60
2023-01-17T06:49:55.116Z,0.80
2023-01-17T06:52:21.237Z,0.90
2023-01-17T06:54:47.446Z,0.93
2023-01-17T06:57:13.581Z,0.70
2023-01-17T06:59:39.695Z,1.05
2023-01-17T07:02:05.835Z,0.88
2023-01-17T07:04:31.947Z,1.23
2023-01-17T07:06:58.072Z,0.55
2023-01-17T07:09:24.194Z,1.08
2023-01-17T07:11:50.346Z,0.75
2023-01-17T07:14:16.524Z,0.90
2023-01-17T07:16:42.628Z,0.80
2023-01-17T07:19:08.773Z,1.00
2023-01-17T07:21:34.907Z,0.60
2023-01-17T07:24:01.043Z,0.80
2023-01-17T07:26:27.160Z,0.60
2023-01-17T07:28:53.295Z,1.00
2023-01-17T07:31:19.475Z,0.93
2023-01-17T07:33:45.608Z,1.02
2023-01-17T07:36:11.747Z,1.08
2023-01-17T07:38:37.882Z,0.95
2023-01-17T07:41:04.008Z,1.00
2023-01-17T07:43:30.210Z,0.88
2023-01-17T07:45:56.330Z,0.90
2023-01-17T07:48:22.463Z,0.60
2023-01-17T07:50:48.574Z,0.80
2023-01-17T07:53:14.705Z,0.80
2023-01-17T07:55:40.862Z,0.73
2023-01-17T07:58:06.978Z,0.80
2023-01-17T08:00:33.121Z,1.00
2023-01-17T08:02:59.228Z,0.63
2023-01-17T08:05:25.345Z,0.88
2023-01-17T08:07:51.463Z,0.80
2023-01-17T08:10:17.638Z,0.80
2023-01-17T08:12:43.746Z,1.00
2023-01-17T08:15:09.875Z,1.15
2023-01-17T08:17:35.972Z,1.13
2023-01-17T08:20:02.137Z,0.98
2023-01-17T08:22:28.256Z,1.10
2023-01-17T08:24:54.377Z,1.45
2023-01-17T08:27:20.520Z,1.08
2023-01-17T08:29:46.666Z,1.20
2023-01-17T08:32:12.800Z,0.90
2023-01-17T08:34:38.926Z,1.20
2023-01-17T08:37:05.055Z,0.95
2023-01-17T08:39:31.199Z,0.85
2023-01-17T08:41:57.338Z,1.00
2023-01-17T08:44:23.504Z,2.75
2023-01-17T08:46:49.630Z,1.25
2023-01-17T08:49:15.766Z,1.08
2023-01-17T08:51:41.924Z,1.33
2023-01-17T08:54:08.058Z,0.95
2023-01-17T08:56:34.197Z,1.05
2023-01-17T08:59:00.333Z,1.20
2023-01-17T09:01:26.602Z,0.80
2023-01-17T09:03:52.796Z,0.63
2023-01-17T09:06:18.936Z,0.73
2023-01-17T09:08:46.422Z,0.60
2023-01-17T09:11:12.629Z,0.90
2023-01-17T09:13:38.798Z,1.05
2023-01-17T09:16:05.013Z,1.05
2023-01-17T09:18:31.124Z,0.70
2023-01-17T09:20:57.321Z,0.77
2023-01-17T09:23:23.431Z,1.02
2023-01-17T09:25:49.544Z,0.75
2023-01-17T09:28:15.677Z,0.77
2023-01-17T09:30:41.823Z,0.75
2023-01-17T09:33:08.003Z,0.90
2023-01-17T09:35:34.100Z,2.20
2023-01-17T09:38:00.213Z,0.80
2023-01-17T09:40:26.334Z,0.85
2023-01-17T09:42:52.477Z,0.60
2023-01-17T09:45:18.632Z,0.60
2023-01-17T09:47:44.813Z,0.60
2023-01-17T09:50:10.948Z,0.82
2023-01-17T09:52:37.089Z,0.55
2023-01-17T09:55:03.196Z,0.68
2023-01-17T09:57:29.374Z,0.70
2023-01-17T10:00:02.957Z,0.70
2023-01-17T10:02:29.796Z,0.80
2023-01-17T10:04:55.989Z,0.50
2023-01-17T10:07:22.101Z,0.70
2023-01-17T10:09:48.255Z,0.88
2023-01-17T10:12:14.363Z,0.57
2023-01-17T10:14:40.493Z,0.60
2023-01-17T10:17:06.635Z,0.38
2023-01-17T10:19:32.881Z,0.47
2023-01-17T10:21:59.019Z,0.40
2023-01-17T10:24:25.144Z,0.60
2023-01-17T10:26:51.268Z,0.50
2023-01-17T10:29:18.993Z,0.38
2023-01-17T10:31:46.289Z,0.50
2023-01-17T10:34:12.413Z,0.50
2023-01-17T10:36:38.525Z,0.75
2023-01-17T10:39:04.651Z,0.88
2023-01-17T10:41:30.791Z,0.63
2023-01-17T10:43:56.947Z,0.52
2023-01-17T10:46:23.183Z,0.50
2023-01-17T10:48:49.334Z,0.30
2023-01-17T10:51:15.475Z,0.30
2023-01-17T10:53:41.589Z,0.38
2023-01-17T10:56:07.789Z,0.45
2023-01-17T10:58:33.894Z,0.50
2023-01-17T11:01:00.096Z,0.80
2023-01-17T11:03:26.266Z,0.68
2023-01-17T11:05:52.407Z,0.40
2023-01-17T11:08:18.547Z,0.22
2023-01-17T11:10:44.732Z,0.50
2023-01-17T11:13:10.873Z,0.30
2023-01-17T11:15:37.019Z,0.60
2023-01-17T11:18:03.195Z,0.73
2023-01-17T11:20:29.314Z,0.40
2023-01-17T11:22:55.447Z,0.50
2023-01-17T11:25:21.572Z,0.63
2023-01-17T11:27:47.712Z,0.50
2023-01-17T11:30:13.879Z,0.60
2023-01-17T11:32:40.131Z,0.60
2023-01-17T11:35:06.305Z,0.35
2023-01-17T11:37:32.443Z,0.82
2023-01-17T11:39:58.562Z,0.50
2023-01-17T11:42:24.730Z,0.50
2023-01-17T11:44:50.845Z,0.50
2023-01-17T11:47:16.976Z,0.45
2023-01-17T11:49:43.096Z,0.40
2023-01-17T11:52:09.242Z,0.60
2023-01-17T11:54:35.342Z,0.32
2023-01-17T11:57:01.577Z,0.68
2023-01-17T11:59:27.723Z,0.60
2023-01-17T12:01:53.897Z,0.50
2023-01-17T12:04:19.989Z,0.65
2023-01-17T12:06:57.139Z,0.40
2023-01-17T12:09:23.967Z,1.17
2023-01-17T12:11:50.076Z,0.70
2023-01-17T12:14:16.255Z,0.35
2023-01-17T12:16:42.355Z,0.40
2023-01-17T12:19:08.476Z,0.60
2023-01-17T12:21:34.602Z,0.43
2023-01-17T12:24:00.764Z,0.63
2023-01-17T12:26:26.885Z,0.70
2023-01-17T12:28:53.012Z,0.60
2023-01-17T12:31:19.287Z,0.70
2023-01-17T12:33:45.527Z,0.68
2023-01-17T12:36:11.657Z,0.60
2023-01-17T12:38:37.765Z,1.33
2023-01-17T12:41:03.906Z,0.70
2023-01-17T12:43:30.048Z,1.25
2023-01-17T12:45:56.182Z,0.50
2023-01-17T12:48:22.307Z,0.57
2023-01-17T12:50:48.468Z,0.55
2023-01-17T12:53:14.585Z,0.50
2023-01-17T12:55:40.710Z,0.50
2023-01-17T12:58:06.836Z,0.47
2023-01-17T13:00:32.994Z,0.70
2023-01-17T13:02:59.121Z,0.50
2023-01-17T13:05:25.272Z,1.08
2023-01-17T13:07:51.381Z,0.50
2023-01-17T13:10:17.571Z,0.50
2023-01-17T13:12:43.719Z,0.75
2023-01-17T13:15:09.843Z,0.73
2023-01-17T13:17:36.009Z,0.60
2023-01-17T13:20:02.165Z,0.75
2023-01-17T13:22:28.288Z,0.63
2023-01-17T13:24:54.403Z,0.73
2023-01-17T13:27:20.563Z,0.50
2023-01-17T13:29:46.681Z,0.60
2023-01-17T13:32:12.858Z,0.70
2023-01-17T13:34:38.984Z,0.75
2023-01-17T13:37:05.188Z,0.70
2023-01-17T13:39:31.332Z,0.50
2023-01-17T13:41:57.456Z,0.70
2023-01-17T13:44:23.573Z,0.90
2023-01-17T13:46:49.702Z,0.60
2023-01-17T13:49:15.837Z,0.50
2023-01-17T13:51:41.938Z,0.70
2023-01-17T13:54:08.216Z,0.43
2023-01-17T13:56:34.359Z,0.60
2023-01-17T13:59:00.493Z,0.40
2023-01-17T14:01:26.743Z,0.40
2023-01-17T14:03:52.916Z,0.47
2023-01-17T14:06:19.015Z,0.80
2023-01-17T14:08:45.165Z,0.50
2023-01-17T14:11:11.268Z,0.95
2023-01-17T14:13:37.489Z,0.77
2023-01-17T14:16:03.642Z,0.70
2023-01-17T14:18:29.798Z,0.80
2023-01-17T14:20:55.910Z,0.70
2023-01-17T14:23:22.027Z,0.70
2023-01-17T14:25:48.179Z,0.90
2023-01-17T14:28:14.310Z,0.80
2023-01-17T14:30:40.556Z,0.90
2023-01-17T14:33:06.681Z,0.60
2023-01-17T14:35:32.988Z,0.80
2023-01-17T14:37:59.117Z,0.50
2023-01-17T14:40:25.263Z,0.60
2023-01-17T14:42:51.381Z,1.10
2023-01-17T14:45:17.579Z,0.82
2023-01-17T14:47:43.696Z,0.60
2023-01-17T14:50:09.850Z,1.08
2023-01-17T14:52:35.964Z,0.70
2023-01-17T14:55:02.107Z,0.90
2023-01-17T14:57:28.229Z,1.00
2023-01-17T14:59:54.359Z,0.90
2023-01-17T15:02:20.641Z,1.17
2023-01-17T15:04:46.846Z,0.65
2023-01-17T15:07:12.949Z,0.70
2023-01-17T15:09:39.087Z,0.63
2023-01-17T15:12:05.225Z,1.40
2023-01-17T15:14:31.368Z,1.10
2023-01-17T15:16:57.503Z,1.15
2023-01-17T15:19:23.625Z,1.75
2023-01-17T15:21:49.786Z,0.63
2023-01-17T15:24:15.953Z,1.00
2023-01-17T15:26:42.093Z,0.82
2023-01-17T15:29:08.242Z,0.82
2023-01-17T15:31:34.405Z,0.70
2023-01-17T15:34:00.502Z,1.10
2023-01-17T15:36:26.658Z,0.70
2023-01-17T15:38:52.768Z,0.82
2023-01-17T15:41:18.908Z,1.23
2023-01-17T15:43:45.029Z,0.95
2023-01-17T15:46:11.176Z,0.85
2023-01-17T15:48:37.308Z,0.98
2023-01-17T15:51:03.434Z,1.33
2023-01-17T15:53:29.558Z,1.27
2023-01-17T15:55:55.666Z,1.75
2023-01-17T15:58:21.781Z,1.95
2023-01-17T16:00:48.145Z,1.02
2023-01-17T16:03:14.358Z,1.73
2023-01-17T16:05:40.496Z,1.13
2023-01-17T16:08:06.619Z,1.20
2023-01-17T16:10:32.735Z,1.40
2023-01-17T16:12:58.861Z,1.00
2023-01-17T16:15:24.996Z,1.10
2023-01-17T16:17:51.354Z,1.10
2023-01-17T16:20:17.669Z,1.02
2023-01-17T16:22:43.814Z,1.17
2023-01-17T16:25:09.933Z,1.10
2023-01-17T16:27:36.096Z,1.20
2023-01-17T16:30:02.195Z,1.30
2023-01-17T16:32:28.337Z,1.05
2023-01-17T16:34:54.451Z,1.13
2023-01-17T16:37:22.050Z,6.43
2023-01-17T16:39:48.333Z,1.45
2023-01-17T16:42:14.438Z,1.00
2023-01-17T16:44:40.576Z,1.40
2023-01-17T16:47:06.692Z,1.45
2023-01-17T16:49:32.960Z,1.15
2023-01-17T16:51:59.074Z,1.17
2023-01-17T16:54:25.189Z,1.58
2023-01-17T16:56:51.367Z,1.70
2023-01-17T16:59:17.501Z,1.52
2023-01-17T17:01:43.707Z,2.33
2023-01-17T17:04:09.896Z,1.52
2023-01-17T17:06:36.048Z,1.73
2023-01-17T17:09:02.187Z,1.48
2023-01-17T17:11:28.316Z,1.27
2023-01-17T17:13:54.435Z,1.20
2023-01-17T17:16:20.952Z,1.30
2023-01-17T17:18:47.053Z,1.20
2023-01-17T17:21:13.209Z,1.27
2023-01-17T17:23:39.328Z,1.88
2023-01-17T17:26:05.462Z,1.60
2023-01-17T17:28:31.557Z,2.17
2023-01-17T17:30:57.698Z,1.92
2023-01-17T17:33:23.823Z,1.65
2023-01-17T17:35:49.939Z,1.52
2023-01-17T17:38:16.053Z,1.35
2023-01-17T17:40:42.175Z,1.63
2023-01-17T17:43:08.295Z,2.70
2023-01-17T17:45:34.425Z,1.58
2023-01-17T17:48:00.527Z,1.80
2023-01-17T17:50:26.653Z,1.48
2023-01-17T17:52:52.799Z,1.40
2023-01-17T17:55:18.949Z,1.50
2023-01-17T17:57:45.149Z,1.73
2023-01-17T18:00:11.259Z,1.70
2023-01-17T18:02:37.441Z,1.60
2023-01-17T18:05:03.606Z,1.90
2023-01-17T18:07:29.731Z,1.40
2023-01-17T18:09:55.898Z,1.58
2023-01-17T18:12:22.073Z,1.50
2023-01-17T18:14:48.206Z,1.45
2023-01-17T18:17:14.383Z,1.73
2023-01-17T18:19:40.479Z,1.75
2023-01-17T18:22:06.626Z,1.58
2023-01-17T18:24:32.749Z,1.50
2023-01-17T18:26:58.894Z,1.60
2023-01-17T18:29:24.996Z,2.00
2023-01-17T18:31:51.132Z,1.77
2023-01-17T18:34:17.254Z,1.70
2023-01-17T18:36:43.374Z,1.95
2023-01-17T18:39:09.522Z,1.60
2023-01-17T18:41:35.625Z,1.65
2023-01-17T18:44:01.753Z,1.77
2023-01-17T18:46:27.891Z,1.42
2023-01-17T18:48:54.029Z,2.25
2023-01-17T18:51:20.152Z,1.38
2023-01-17T18:53:46.273Z,1.88
2023-01-17T18:56:12.373Z,1.30
2023-01-17T18:58:38.578Z,2.35
2023-01-17T19:01:04.822Z,1.92
2023-01-17T19:03:30.981Z,1.92
2023-01-17T19:05:57.098Z,2.03
2023-01-17T19:08:23.258Z,1.42
2023-01-17T19:10:49.403Z,1.90
2023-01-17T19:13:15.512Z,1.50
2023-01-17T19:15:41.637Z,1.90
2023-01-17T19:18:07.758Z,1.77
2023-01-17T19:20:33.879Z,1.92
2023-01-17T19:22:59.981Z,1.80
2023-01-17T19:25:26.107Z,1.92
2023-01-17T19:27:52.217Z,1.65
2023-01-17T19:30:18.333Z,1.73
2023-01-17T19:32:44.456Z,1.77
2023-01-17T19:35:10.594Z,2.10
2023-01-17T19:37:36.689Z,2.40
2023-01-17T19:40:02.877Z,2.70
2023-01-17T19:42:28.986Z,3.15
2023-01-17T19:44:55.108Z,3.00
2023-01-17T19:47:21.223Z,2.83
2023-01-17T19:49:47.348Z,3.20
2023-01-17T19:52:13.452Z,3.03
2023-01-17T19:54:39.572Z,2.83
2023-01-17T19:57:05.680Z,3.25
2023-01-17T19:59:31.822Z,3.67
2023-01-17T20:01:58.052Z,3.13
2023-01-17T20:04:24.325Z,2.80
2023-01-17T20:06:50.459Z,2.83
2023-01-17T20:09:16.586Z,3.05
2023-01-17T20:11:42.707Z,3.28
2023-01-17T20:14:08.825Z,3.90
2023-01-17T20:16:35.000Z,3.15
2023-01-17T20:19:01.159Z,2.70
2023-01-17T20:21:27.334Z,4.07
2023-01-17T20:23:53.489Z,2.90
2023-01-17T20:26:19.662Z,2.97
2023-01-17T20:28:45.791Z,3.03
2023-01-17T20:31:11.923Z,3.30
2023-01-17T20:33:38.046Z,3.35
2023-01-17T20:36:10.109Z,3.25
2023-01-17T20:38:37.075Z,3.55
2023-01-17T20:41:03.190Z,3.75
2023-01-17T20:43:29.345Z,3.78
2023-01-17T20:45:55.553Z,3.80
2023-01-17T20:48:21.718Z,3.88
2023-01-17T20:50:47.838Z,3.78
2023-01-17T20:53:13.975Z,2.92
2023-01-17T20:55:40.090Z,3.25
2023-01-17T20:58:06.227Z,2.80
2023-01-17T21:00:32.341Z,2.60
2023-01-17T21:02:58.482Z,2.42
2023-01-17T21:05:24.637Z,2.35
2023-01-17T21:07:50.779Z,1.98
2023-01-17T21:10:16.897Z,2.47
2023-01-17T21:12:43.023Z,2.17
2023-01-17T21:15:09.143Z,2.50
2023-01-17T21:17:35.274Z,2.08
2023-01-17T21:20:01.383Z,2.22
2023-01-17T21:22:27.503Z,2.40
2023-01-17T21:24:53.633Z,3.10
2023-01-17T21:27:19.781Z,2.30
2023-01-17T21:29:45.878Z,1.83
2023-01-17T21:32:12.023Z,2.15
2023-01-17T21:34:38.177Z,2.30
2023-01-17T21:37:04.295Z,2.25
2023-01-17T21:39:30.478Z,1.88
2023-01-17T21:41:56.585Z,2.00
2023-01-17T21:44:22.697Z,2.30
2023-01-17T21:46:48.811Z,1.98
2023-01-17T21:49:14.930Z,1.70
2023-01-17T21:51:41.025Z,2.50
2023-01-17T21:54:07.173Z,1.92
2023-01-17T21:56:33.307Z,2.03
2023-01-17T21:58:59.447Z,2.17
2023-01-17T22:01:25.726Z,2.40
2023-01-17T22:03:51.979Z,2.22
2023-01-17T22:06:18.105Z,2.28
2023-01-17T22:08:44.247Z,2.00
2023-01-17T22:11:10.376Z,2.10
2023-01-17T22:13:36.485Z,2.63
2023-01-17T22:16:02.668Z,2.20
2023-01-17T22:18:28.808Z,2.13
2023-01-17T22:20:54.946Z,2.08
2023-01-17T22:23:21.049Z,2.03
2023-01-17T22:25:47.183Z,2.05
2023-01-17T22:28:13.382Z,2.13
2023-01-17T22:30:39.603Z,2.10
2023-01-17T22:33:05.762Z,1.92
2023-01-17T22:35:31.894Z,2.90
2023-01-17T22:37:58.005Z,2.22
2023-01-17T22:40:24.118Z,2.00
2023-01-17T22:42:50.238Z,2.00
2023-01-17T22:45:16.412Z,1.90
2023-01-17T22:47:42.529Z,2.03
2023-01-17T22:50:08.661Z,1.60
2023-01-17T22:52:34.794Z,1.75
2023-01-17T22:55:00.903Z,2.30
2023-01-17T22:57:27.062Z,2.47
2023-01-17T22:59:53.201Z,1.73
2023-01-17T23:02:19.335Z,2.22
2023-01-17T23:04:45.482Z,2.30
2023-01-17T23:07:11.609Z,2.20
2023-01-17T23:09:37.770Z,2.35
2023-01-17T23:12:03.947Z,2.40
2023-01-17T23:14:30.053Z,2.17
2023-01-17T23:16:56.188Z,2.40
2023-01-17T23:19:22.305Z,2.40
2023-01-17T23:21:48.766Z,2.00
2023-01-17T23:24:14.874Z,2.20
2023-01-17T23:26:43.821Z,2.10
2023-01-17T23:29:09.948Z,2.38
2023-01-17T23:31:36.133Z,2.10
2023-01-17T23:34:02.279Z,2.40
2023-01-17T23:36:28.398Z,2.00
2023-01-17T23:38:54.539Z,1.70
2023-01-17T23:41:20.641Z,1.85
2023-01-17T23:43:47.038Z,2.17
2023-01-17T23:46:13.201Z,1.85
2023-01-17T23:48:39.347Z,1.73
2023-01-17T23:51:05.466Z,1.73
2023-01-17T23:53:34.817Z,1.85
2023-01-17T23:56:00.948Z,1.80
2023-01-17T23:58:27.226Z,1.60
